createdAt,value
2022-08-05T00:02:11.608Z,2.70
2022-08-05T00:05:05.872Z,2.50
2022-08-05T00:08:01.071Z,2.70
2022-08-05T00:10:51.806Z,2.80
2022-08-05T00:13:43.431Z,2.70
2022-08-05T00:16:52.595Z,2.80
2022-08-05T00:19:57.435Z,2.80
2022-08-05T00:22:57.402Z,2.80
2022-08-05T00:25:51.752Z,2.70
2022-08-05T00:28:45.737Z,2.80
2022-08-05T00:31:53.300Z,3.00
2022-08-05T00:35:04.415Z,2.70
2022-08-05T00:37:57.797Z,2.60
2022-08-05T00:40:53.408Z,2.60
2022-08-05T00:43:49.965Z,2.50
2022-08-05T00:46:42.594Z,2.80
2022-08-05T00:49:44.603Z,2.70
2022-08-05T00:52:42.380Z,2.70
2022-08-05T00:55:43.547Z,2.80
2022-08-05T00:58:33.976Z,2.50
2022-08-05T01:01:42.138Z,2.80
2022-08-05T01:04:34.154Z,2.60
2022-08-05T01:07:31.755Z,2.90
2022-08-05T01:10:28.774Z,2.50
2022-08-05T01:13:57.906Z,2.50
2022-08-05T01:16:45.077Z,2.60
2022-08-05T01:20:01.915Z,2.60
2022-08-05T01:23:14.964Z,2.40
2022-08-05T01:26:26.397Z,2.70
2022-08-05T01:29:23.021Z,2.60
2022-08-05T01:32:18.847Z,2.60
2022-08-05T01:35:51.176Z,2.80
2022-08-05T01:38:30.072Z,2.50
2022-08-05T01:41:25.794Z,2.70
2022-08-05T01:44:18.297Z,2.60
2022-08-05T01:47:12.128Z,2.70
2022-08-05T01:50:05.138Z,2.90
2022-08-05T01:53:00.610Z,2.60
2022-08-05T01:55:54.214Z,2.70
2022-08-05T01:58:46.524Z,2.70
2022-08-05T02:01:41.799Z,2.80
2022-08-05T02:04:36.428Z,2.60
2022-08-05T02:07:30.491Z,2.60
2022-08-05T02:10:23.678Z,2.80
2022-08-05T02:13:22.954Z,2.80
2022-08-05T02:16:23.834Z,2.70
2022-08-05T02:19:25.928Z,2.70
2022-08-05T02:22:26.767Z,2.80
2022-08-05T02:25:23.656Z,2.80
2022-08-05T02:28:29.379Z,2.60
2022-08-05T02:31:28.497Z,2.80
2022-08-05T02:34:30.515Z,2.70
2022-08-05T02:37:22.838Z,2.80
2022-08-05T02:40:14.875Z,2.60
2022-08-05T02:43:08.022Z,2.80
2022-08-05T02:46:02.114Z,3.00
2022-08-05T02:48:54.087Z,2.80
2022-08-05T02:52:03.749Z,2.70
2022-08-05T02:54:57.257Z,2.60
2022-08-05T02:58:10.177Z,2.60
2022-08-05T03:01:02.164Z,2.60
2022-08-05T03:04:03.113Z,2.60
2022-08-05T03:07:01.048Z,2.60
2022-08-05T03:09:52.048Z,2.60
2022-08-05T03:12:43.283Z,2.60
2022-08-05T03:15:33.865Z,2.60
2022-08-05T03:18:29.766Z,2.80
2022-08-05T03:21:23.699Z,2.90
2022-08-05T03:24:30.187Z,2.40
2022-08-05T03:27:22.129Z,2.60
2022-08-05T03:30:20.784Z,2.60
2022-08-05T03:33:20.022Z,2.80
2022-08-05T03:36:12.686Z,2.50
2022-08-05T03:39:19.837Z,2.60
2022-08-05T03:42:16.071Z,2.50
2022-08-05T03:45:21.544Z,2.40
2022-08-05T03:48:15.386Z,2.40
2022-08-05T03:52:37.213Z,2.70
2022-08-05T03:55:49.723Z,2.60
2022-08-05T03:57:53.533Z,2.70
2022-08-05T04:00:51.401Z,2.60
2022-08-05T04:04:09.524Z,2.50
2022-08-05T04:07:01.682Z,2.70
2022-08-05T04:09:55.091Z,2.60
2022-08-05T04:12:46.008Z,2.40
2022-08-05T04:15:37.281Z,2.60
2022-08-05T04:18:29.196Z,2.40
2022-08-05T04:22:09.301Z,2.60
2022-08-05T04:24:31.352Z,2.70
2022-08-05T04:27:41.779Z,2.40
2022-08-05T04:30:33.233Z,2.30
2022-08-05T04:34:17.214Z,2.30
2022-08-05T04:36:45.648Z,2.50
2022-08-05T04:39:41.218Z,2.60
2022-08-05T04:42:32.070Z,2.70
2022-08-05T04:45:48.626Z,2.70
2022-08-05T04:48:36.886Z,2.60
2022-08-05T04:51:30.364Z,2.80
2022-08-05T04:54:21.904Z,2.60
2022-08-05T04:57:12.467Z,2.70
2022-08-05T05:00:02.491Z,2.60
2022-08-05T05:02:53.216Z,2.70
2022-08-05T05:06:35.868Z,2.80
2022-08-05T05:08:53.366Z,2.70
2022-08-05T05:11:54.331Z,2.60
2022-08-05T05:14:50.838Z,2.80
2022-08-05T05:17:56.911Z,3.20
2022-08-05T05:20:50.435Z,3.10
2022-08-05T05:24:03.975Z,2.80
2022-08-05T05:26:51.965Z,3.00
2022-08-05T05:30:04.261Z,2.80
2022-08-05T05:32:52.823Z,2.70
2022-08-05T05:35:43.563Z,2.90
2022-08-05T05:38:33.724Z,2.90
2022-08-05T05:41:23.325Z,3.10
2022-08-05T05:44:35.794Z,2.90
2022-08-05T05:47:30.224Z,2.90
2022-08-05T05:50:44.015Z,2.80
2022-08-05T05:53:54.150Z,3.40
2022-08-05T05:56:43.729Z,3.20
2022-08-05T05:59:40.250Z,3.20
2022-08-05T06:02:37.370Z,3.30
2022-08-05T06:05:27.323Z,3.00
2022-08-05T06:08:32.275Z,3.40
2022-08-05T06:11:28.838Z,3.40
2022-08-05T06:14:18.978Z,3.10
2022-08-05T06:17:21.917Z,3.10
2022-08-05T06:20:18.914Z,3.40
2022-08-05T06:23:11.741Z,3.20
2022-08-05T06:26:13.928Z,3.80
2022-08-05T06:29:43.283Z,4.00
2022-08-05T06:32:25.768Z,4.20
2022-08-05T06:36:04.036Z,4.10
2022-08-05T06:38:36.182Z,4.10
2022-08-05T06:41:27.591Z,4.80
2022-08-05T06:44:19.368Z,5.10
2022-08-05T06:47:30.037Z,4.40
2022-08-05T06:50:22.606Z,3.70
2022-08-05T06:53:22.343Z,4.00
2022-08-05T06:56:26.250Z,3.40
2022-08-05T06:59:16.585Z,4.10
2022-08-05T07:02:08.032Z,4.10
2022-08-05T07:04:59.499Z,4.20
2022-08-05T07:07:50.606Z,4.50
2022-08-05T07:10:53.177Z,4.20
2022-08-05T07:14:02.346Z,4.00
2022-08-05T07:17:59.395Z,3.70
2022-08-05T07:20:32.234Z,4.30
2022-08-05T07:23:26.545Z,3.60
2022-08-05T07:26:22.770Z,3.70
2022-08-05T07:29:16.566Z,3.70
2022-08-05T07:32:07.844Z,3.50
2022-08-05T07:34:58.719Z,3.60
2022-08-05T07:37:48.416Z,3.50
2022-08-05T07:40:44.596Z,3.30
2022-08-05T07:43:34.998Z,3.80
2022-08-05T07:46:26.016Z,3.90
2022-08-05T07:49:16.185Z,4.00
2022-08-05T07:52:08.815Z,4.30
2022-08-05T07:54:59.522Z,4.20
2022-08-05T07:58:02.107Z,3.70
2022-08-05T08:00:53.054Z,3.70
2022-08-05T08:03:44.523Z,4.00
2022-08-05T08:06:35.359Z,4.10
2022-08-05T08:09:25.239Z,4.00
2022-08-05T08:12:35.584Z,3.70
2022-08-05T08:15:37.431Z,4.20
2022-08-05T08:18:39.609Z,4.10
2022-08-05T08:21:29.590Z,4.00
2022-08-05T08:24:20.377Z,3.80
2022-08-05T08:27:40.474Z,4.10
2022-08-05T08:30:40.762Z,3.90
2022-08-05T08:33:38.750Z,3.90
2022-08-05T08:36:38.691Z,4.40
2022-08-05T08:39:32.526Z,4.10
2022-08-05T08:42:33.892Z,4.00
2022-08-05T08:45:30.418Z,4.10
2022-08-05T08:48:59.310Z,3.90
2022-08-05T08:52:04.012Z,3.80
2022-08-05T08:54:47.692Z,3.90
2022-08-05T08:57:42.362Z,3.80
2022-08-05T09:00:48.943Z,4.20
2022-08-05T09:03:45.545Z,3.90
2022-08-05T09:06:36.229Z,3.90
2022-08-05T09:09:34.629Z,4.10
2022-08-05T09:12:27.904Z,4.30
2022-08-05T09:15:18.038Z,3.80
2022-08-05T09:18:13.464Z,4.00
2022-08-05T09:21:03.127Z,4.20
2022-08-05T09:24:10.217Z,4.20
2022-08-05T09:27:01.402Z,4.30
2022-08-05T09:29:54.597Z,4.60
2022-08-05T09:32:46.855Z,4.40
2022-08-05T09:35:36.951Z,4.70
2022-08-05T09:38:29.483Z,4.40
2022-08-05T09:41:19.622Z,3.70
2022-08-05T09:44:11.212Z,4.20
2022-08-05T09:47:12.747Z,4.30
2022-08-05T09:50:04.595Z,3.90
2022-08-05T09:53:04.030Z,4.20
2022-08-05T09:56:04.494Z,4.30
2022-08-05T09:59:05.038Z,4.00
2022-08-05T10:01:58.211Z,4.40
2022-08-05T10:04:48.497Z,4.10
2022-08-05T10:08:36.660Z,4.50
2022-08-05T10:11:15.073Z,4.00
2022-08-05T10:14:24.614Z,4.70
2022-08-05T10:17:37.444Z,4.40
2022-08-05T10:20:29.165Z,3.80
2022-08-05T10:23:55.900Z,4.20
2022-08-05T10:26:33.807Z,4.50
2022-08-05T10:30:06.951Z,4.40
2022-08-05T10:32:55.161Z,3.90
2022-08-05T10:35:58.931Z,4.40
2022-08-05T10:38:53.335Z,4.10
2022-08-05T10:41:59.090Z,4.60
2022-08-05T10:44:52.933Z,4.70
2022-08-05T10:47:47.105Z,5.00
2022-08-05T10:51:03.488Z,4.50
2022-08-05T10:54:00.900Z,4.60
2022-08-05T10:56:56.040Z,4.20
2022-08-05T11:00:02.042Z,4.30
2022-08-05T11:03:25.950Z,4.40
2022-08-05T11:06:17.886Z,4.50
2022-08-05T11:09:39.193Z,4.10
2022-08-05T11:12:50.296Z,4.70
2022-08-05T11:16:00.210Z,4.10
2022-08-05T11:20:11.151Z,4.70
2022-08-05T11:22:49.716Z,4.80
2022-08-05T11:26:05.213Z,5.10
2022-08-05T11:28:56.538Z,5.10
2022-08-05T11:31:56.486Z,4.60
2022-08-05T11:34:51.336Z,4.70
2022-08-05T11:38:45.769Z,5.00
2022-08-05T11:41:56.430Z,4.60
2022-08-05T11:44:52.791Z,4.70
2022-08-05T11:47:48.581Z,4.30
2022-08-05T11:50:42.960Z,5.00
2022-08-05T11:53:40.742Z,4.10
2022-08-05T11:56:50.058Z,4.40
2022-08-05T11:59:50.345Z,4.80
2022-08-05T12:02:40.874Z,4.40
2022-08-05T12:05:39.677Z,4.40
2022-08-05T12:08:34.257Z,4.40
2022-08-05T12:11:39.756Z,4.50
2022-08-05T12:14:38.931Z,4.00
2022-08-05T12:18:11.091Z,4.40
2022-08-05T12:20:48.796Z,4.10
2022-08-05T12:23:42.884Z,4.60
2022-08-05T12:26:38.801Z,4.30
2022-08-05T12:29:38.615Z,4.20
2022-08-05T12:32:30.025Z,4.20
2022-08-05T12:35:21.668Z,4.00
2022-08-05T12:38:12.903Z,4.30
2022-08-05T12:41:06.160Z,4.30
2022-08-05T12:44:00.272Z,4.20
2022-08-05T12:46:56.391Z,4.00
2022-08-05T12:50:04.070Z,4.10
2022-08-05T12:53:01.100Z,3.90
2022-08-05T12:55:51.241Z,3.80
2022-08-05T12:58:53.055Z,3.40
2022-08-05T13:02:02.755Z,3.60
2022-08-05T13:04:58.870Z,3.80
2022-08-05T13:07:59.200Z,3.30
2022-08-05T13:10:50.878Z,3.50
2022-08-05T13:14:04.539Z,3.50
2022-08-05T13:16:58.785Z,4.20
2022-08-05T13:20:04.545Z,3.70
2022-08-05T13:22:57.495Z,3.50
2022-08-05T13:25:52.172Z,4.10
2022-08-05T13:28:49.303Z,3.70
2022-08-05T13:32:03.979Z,3.50
2022-08-05T13:34:55.324Z,3.60
2022-08-05T13:37:45.694Z,3.90
2022-08-05T13:40:49.868Z,3.80
2022-08-05T13:43:45.475Z,3.80
2022-08-05T13:47:02.532Z,3.50
2022-08-05T13:49:55.673Z,4.10
2022-08-05T13:52:46.080Z,3.80
2022-08-05T13:55:49.308Z,3.90
2022-08-05T13:58:53.332Z,3.90
2022-08-05T14:01:56.261Z,3.70
2022-08-05T14:05:05.813Z,3.70
2022-08-05T14:08:08.734Z,3.90
2022-08-05T14:11:20.420Z,3.80
2022-08-05T14:14:12.805Z,3.50
2022-08-05T14:17:17.749Z,4.10
2022-08-05T14:20:09.498Z,4.30
2022-08-05T14:23:08.283Z,4.30
2022-08-05T14:25:59.746Z,4.60
2022-08-05T14:28:52.559Z,4.10
2022-08-05T14:31:54.433Z,4.10
2022-08-05T14:34:53.057Z,4.30
2022-08-05T14:37:47.309Z,4.30
2022-08-05T14:40:40.150Z,3.90
2022-08-05T14:43:59.160Z,4.10
2022-08-05T14:46:44.487Z,4.20
2022-08-05T14:49:59.432Z,4.50
2022-08-05T14:52:53.040Z,4.50
2022-08-05T14:55:52.109Z,4.30
2022-08-05T14:58:47.747Z,4.50
2022-08-05T15:01:48.055Z,4.60
2022-08-05T15:04:39.325Z,5.20
2022-08-05T15:08:12.299Z,5.40
2022-08-05T15:10:43.486Z,5.70
2022-08-05T15:13:44.916Z,6.30
2022-08-05T15:16:36.302Z,6.30
2022-08-05T15:19:26.801Z,5.90
2022-08-05T15:22:17.586Z,5.80
2022-08-05T15:25:11.543Z,5.30
2022-08-05T15:28:01.898Z,5.20
2022-08-05T15:30:54.768Z,5.10
2022-08-05T15:34:18.933Z,4.70
2022-08-05T15:36:55.321Z,4.40
2022-08-05T15:41:01.807Z,4.50
2022-08-05T15:43:01.548Z,4.10
2022-08-05T15:46:03.148Z,4.10
2022-08-05T15:49:00.618Z,3.80
2022-08-05T15:52:04.324Z,3.90
2022-08-05T15:55:03.687Z,4.40
2022-08-05T15:57:54.199Z,3.50
2022-08-05T16:00:51.028Z,3.70
2022-08-05T16:03:54.785Z,8.40
2022-08-05T16:06:45.544Z,9.80
2022-08-05T16:09:35.214Z,8.80
2022-08-05T16:12:26.904Z,5.90
2022-08-05T16:15:18.360Z,3.70
2022-08-05T16:18:10.646Z,4.20
2022-08-05T16:21:04.556Z,4.00
2022-08-05T16:23:58.057Z,4.00
2022-08-05T16:26:56.887Z,4.10
2022-08-05T16:29:51.099Z,3.70
2022-08-05T16:32:41.848Z,3.90
2022-08-05T16:35:41.957Z,4.50
2022-08-05T16:38:33.121Z,3.70
2022-08-05T16:42:13.901Z,3.90
2022-08-05T16:44:34.977Z,4.00
2022-08-05T16:47:36.372Z,3.80
2022-08-05T16:50:38.971Z,3.90
2022-08-05T16:53:32.109Z,4.20
2022-08-05T16:56:22.646Z,4.20
2022-08-05T16:59:15.643Z,4.80
2022-08-05T17:02:06.740Z,5.20
2022-08-05T17:04:59.603Z,9.80
2022-08-05T17:07:54.593Z,7.60
2022-08-05T17:10:45.073Z,5.40
2022-08-05T17:13:37.049Z,4.30
2022-08-05T17:16:33.649Z,3.90
2022-08-05T17:19:26.132Z,4.20
2022-08-05T17:22:24.986Z,4.20
2022-08-05T17:25:34.058Z,3.50
2022-08-05T17:28:26.462Z,3.40
2022-08-05T17:31:24.122Z,3.80
2022-08-05T17:34:32.551Z,3.40
2022-08-05T17:37:40.824Z,3.40
2022-08-05T17:40:35.438Z,3.70
2022-08-05T17:43:46.681Z,3.50
2022-08-05T17:46:35.287Z,3.60
2022-08-05T17:49:24.957Z,23.60
2022-08-05T17:52:16.434Z,18.10
2022-08-05T17:55:07.989Z,16.50
2022-08-05T17:58:00.450Z,11.60
2022-08-05T18:00:51.145Z,5.50
2022-08-05T18:03:58.950Z,3.90
2022-08-05T18:06:51.442Z,4.00
2022-08-05T18:10:00.466Z,4.80
2022-08-05T18:12:52.492Z,4.90
2022-08-05T18:15:42.094Z,4.80
2022-08-05T18:18:39.695Z,4.30
2022-08-05T18:22:07.366Z,4.20
2022-08-05T18:24:40.551Z,5.50
2022-08-05T18:27:29.989Z,5.10
2022-08-05T18:30:22.283Z,5.70
2022-08-05T18:33:16.613Z,4.90
2022-08-05T18:36:15.456Z,4.50
2022-08-05T18:39:09.823Z,5.10
2022-08-05T18:42:16.172Z,5.00
2022-08-05T18:45:06.736Z,5.00
2022-08-05T18:47:59.673Z,4.90
2022-08-05T18:52:05.714Z,5.00
2022-08-05T18:54:16.942Z,5.60
2022-08-05T18:57:09.255Z,5.80
2022-08-05T19:00:02.415Z,5.70
2022-08-05T19:02:54.627Z,4.90
2022-08-05T19:06:12.629Z,5.10
2022-08-05T19:08:55.306Z,5.00
2022-08-05T19:12:00.924Z,5.30
2022-08-05T19:15:00.968Z,4.50
2022-08-05T19:18:08.345Z,4.40
2022-08-05T19:21:00.758Z,4.20
2022-08-05T19:24:05.456Z,4.30
2022-08-05T19:26:58.494Z,4.70
2022-08-05T19:29:48.222Z,4.30
2022-08-05T19:32:39.513Z,4.40
2022-08-05T19:35:55.954Z,4.10
2022-08-05T19:38:41.453Z,4.30
2022-08-05T19:41:58.124Z,3.90
2022-08-05T19:44:45.297Z,4.10
2022-08-05T19:47:37.953Z,3.90
2022-08-05T19:50:30.238Z,4.40
2022-08-05T19:54:04.549Z,4.00
2022-08-05T19:56:34.736Z,4.40
2022-08-05T20:00:02.164Z,4.30
2022-08-05T20:02:34.829Z,4.40
2022-08-05T20:05:26.549Z,4.00
2022-08-05T20:08:33.679Z,4.20
2022-08-05T20:11:24.670Z,4.30
2022-08-05T20:14:14.442Z,3.90
2022-08-05T20:17:09.997Z,5.20
2022-08-05T20:20:09.519Z,4.50
2022-08-05T20:23:04.120Z,4.00
2022-08-05T20:25:54.817Z,3.90
2022-08-05T20:28:44.461Z,4.00
2022-08-05T20:31:42.077Z,4.00
2022-08-05T20:34:42.402Z,3.70
2022-08-05T20:38:06.207Z,3.80
2022-08-05T20:41:04.665Z,3.80
2022-08-05T20:44:04.211Z,4.00
2022-08-05T20:47:08.932Z,3.30
2022-08-05T20:49:59.947Z,3.30
2022-08-05T20:52:52.532Z,3.30
2022-08-05T20:55:56.430Z,3.20
2022-08-05T20:58:54.112Z,3.40
2022-08-05T21:01:44.932Z,3.30
2022-08-05T21:04:34.938Z,3.30
2022-08-05T21:07:50.501Z,3.40
2022-08-05T21:10:37.899Z,3.40
2022-08-05T21:13:48.318Z,3.20
2022-08-05T21:16:46.322Z,3.40
2022-08-05T21:19:47.502Z,3.50
2022-08-05T21:22:40.732Z,3.40
2022-08-05T21:25:33.736Z,3.40
2022-08-05T21:28:30.838Z,3.40
2022-08-05T21:31:21.393Z,3.10
2022-08-05T21:34:12.183Z,3.30
2022-08-05T21:37:02.907Z,3.20
2022-08-05T21:39:53.278Z,3.40
2022-08-05T21:42:45.762Z,3.50
2022-08-05T21:45:56.191Z,3.20
2022-08-05T21:48:47.922Z,3.50
2022-08-05T21:52:21.927Z,3.10
2022-08-05T21:54:51.269Z,2.90
2022-08-05T21:57:47.632Z,3.30
2022-08-05T22:00:37.864Z,2.90
2022-08-05T22:03:48.789Z,3.50
2022-08-05T22:06:42.449Z,3.50
2022-08-05T22:09:45.898Z,3.60
2022-08-05T22:12:40.325Z,3.40
2022-08-05T22:16:01.660Z,3.60
2022-08-05T22:18:49.228Z,3.20
2022-08-05T22:21:39.771Z,3.50
2022-08-05T22:24:51.879Z,3.40
2022-08-05T22:28:04.873Z,3.40
2022-08-05T22:31:02.345Z,3.40
2022-08-05T22:33:57.519Z,3.30
2022-08-05T22:36:51.557Z,3.50
2022-08-05T22:39:42.336Z,3.30
2022-08-05T22:42:34.230Z,3.50
2022-08-05T22:45:31.533Z,3.30
2022-08-05T22:48:22.943Z,3.50
2022-08-05T22:51:22.676Z,3.60
2022-08-05T22:54:14.010Z,3.40
2022-08-05T22:57:04.339Z,3.30
2022-08-05T22:59:54.519Z,3.30
2022-08-05T23:02:47.006Z,3.30
2022-08-05T23:05:37.094Z,3.40
2022-08-05T23:08:29.915Z,3.40
2022-08-05T23:11:20.179Z,3.50
2022-08-05T23:14:11.017Z,3.60
2022-08-05T23:17:24.270Z,8.50
2022-08-05T23:20:24.414Z,7.00
2022-08-05T23:23:15.039Z,5.80
2022-08-05T23:26:05.746Z,4.50
2022-08-05T23:28:56.042Z,3.80
2022-08-05T23:31:47.088Z,3.70
2022-08-05T23:34:39.457Z,3.20
2022-08-05T23:37:34.165Z,3.40
2022-08-05T23:40:27.165Z,3.20
2022-08-05T23:43:25.635Z,3.30
2022-08-05T23:46:27.279Z,3.20
2022-08-05T23:49:23.902Z,3.30
2022-08-05T23:52:31.643Z,2.80
2022-08-05T23:55:21.721Z,3.20
2022-08-05T23:58:31.305Z,3.10
